Terminal Aerodrome Forecast
Issued by NWS

Current Version | Previous Version | Graphics & Text | Print | Product List | Glossary On
Versions: 1 2 3 4 5 6 7 8 9 10 11 12 13 14 15 16 17
000
FTUS41 KPBZ 241720
TAFHLG
TAF
KHLG 241720Z 2418/2518 28011G20KT P6SM SKC
     FM250000 34006KT P6SM SKC
     FM250600 03004KT P6SM BKN200
     FM251200 09005KT P6SM BKN050=

USA.gov is the U.S. government's official web portal to all federal, state and local government web resources and services.